createdAt,value
2023-04-19T00:02:49.711Z,4.4
2023-04-19T00:05:51.636Z,5.6
2023-04-19T00:08:53.567Z,4.5
2023-04-19T00:11:55.586Z,4.9
2023-04-19T00:14:57.559Z,5.1
2023-04-19T00:17:59.527Z,4.9
2023-04-19T00:21:01.463Z,4.8
2023-04-19T00:24:03.413Z,5.2
2023-04-19T00:27:05.375Z,5
2023-04-19T00:30:07.335Z,5.2
2023-04-19T00:33:09.306Z,5.9
2023-04-19T00:36:11.241Z,5.5
2023-04-19T00:39:13.193Z,4.8
2023-04-19T00:42:15.157Z,5.4
2023-04-19T00:45:17.114Z,6.1
2023-04-19T00:48:19.071Z,5.8
2023-04-19T00:51:21.025Z,6
2023-04-19T00:54:22.972Z,5.9
2023-04-19T00:57:24.930Z,6.3
2023-04-19T01:00:26.896Z,6.5
2023-04-19T01:03:28.980Z,6.9
2023-04-19T01:06:31.034Z,5.3
2023-04-19T01:09:32.774Z,7
2023-04-19T01:12:34.791Z,6.4
2023-04-19T01:15:36.785Z,7.2
2023-04-19T01:18:38.719Z,7.6
2023-04-19T01:21:40.669Z,6.9
2023-04-19T01:24:42.601Z,7.1
2023-04-19T01:27:44.567Z,7.1
2023-04-19T01:30:46.557Z,7.8
2023-04-19T01:33:48.507Z,7.8
2023-04-19T01:36:50.476Z,7.3
2023-04-19T01:39:52.428Z,7.5
2023-04-19T01:42:54.380Z,9
2023-04-19T01:45:56.350Z,9.2
2023-04-19T01:48:58.295Z,8.8
2023-04-19T01:52:00.263Z,8.8
2023-04-19T01:55:02.217Z,8.4
2023-04-19T01:58:04.188Z,8.4
2023-04-19T02:01:06.178Z,8.5
2023-04-19T02:04:08.131Z,9
2023-04-19T02:07:10.037Z,9
2023-04-19T02:10:12.010Z,9.1
2023-04-19T02:13:13.950Z,8.8
2023-04-19T02:16:15.912Z,9.2
2023-04-19T02:19:17.874Z,9.6
2023-04-19T02:22:20.008Z,9.1
2023-04-19T02:25:21.963Z,10.1
2023-04-19T02:28:23.919Z,9.5
2023-04-19T02:31:25.975Z,9.9
2023-04-19T02:34:27.834Z,8.9
2023-04-19T02:37:29.878Z,9.2
2023-04-19T02:40:31.841Z,9.2
2023-04-19T02:43:33.780Z,10.1
2023-04-19T02:46:35.796Z,9.5
2023-04-19T02:49:37.688Z,10.8
2023-04-19T02:52:39.664Z,10.6
2023-04-19T02:55:41.626Z,10.1
2023-04-19T02:58:43.586Z,11
2023-04-19T03:01:45.625Z,10.1
2023-04-19T03:04:47.502Z,10.8
2023-04-19T03:07:49.504Z,10.5
2023-04-19T03:10:51.450Z,10.5
2023-04-19T03:13:53.454Z,10.9
2023-04-19T03:16:55.455Z,11.6
2023-04-19T03:19:57.412Z,10.5
2023-04-19T03:22:59.345Z,11.4
2023-04-19T03:26:01.310Z,10.5
2023-04-19T03:29:03.254Z,10.3
2023-04-19T03:32:05.266Z,11.5
2023-04-19T03:35:07.243Z,11.4
2023-04-19T03:38:09.132Z,10
2023-04-19T03:41:11.097Z,11
2023-04-19T03:44:13.119Z,11.1
2023-04-19T03:47:15.026Z,11.2
2023-04-19T03:50:17.061Z,11.4
2023-04-19T03:53:19.017Z,11.7
2023-04-19T03:56:21.085Z,11.3
2023-04-19T03:59:23.069Z,11.4
2023-04-19T04:02:25.070Z,11.1
2023-04-19T04:05:26.984Z,11.5
2023-04-19T04:08:28.936Z,11.7
2023-04-19T04:11:31.096Z,10.5
2023-04-19T04:14:32.874Z,10.9
2023-04-19T04:17:34.831Z,10.7
2023-04-19T04:20:36.768Z,11.2
2023-04-19T04:23:38.733Z,10.4
2023-04-19T04:26:40.704Z,11.2
2023-04-19T04:29:42.685Z,11.8
2023-04-19T04:32:44.707Z,11.4
2023-04-19T04:35:46.628Z,10.9
2023-04-19T04:38:48.608Z,11.7
2023-04-19T04:41:50.579Z,12
2023-04-19T04:44:52.530Z,10.4
2023-04-19T04:47:54.541Z,11.3
2023-04-19T04:50:56.439Z,11.5
2023-04-19T04:53:58.399Z,11.4
2023-04-19T04:57:00.416Z,11
2023-04-19T05:00:02.373Z,11.9
2023-04-19T05:03:04.482Z,11.4
2023-04-19T05:06:06.286Z,11
2023-04-19T05:09:08.349Z,11.5
2023-04-19T05:12:10.298Z,10.9
2023-04-19T05:15:12.275Z,12.4
2023-04-19T05:18:14.227Z,11.7
2023-04-19T05:21:16.186Z,10.6
2023-04-19T05:24:18.359Z,11.4
2023-04-19T05:27:20.137Z,11.3
2023-04-19T05:30:22.067Z,11.2
2023-04-19T05:33:24.031Z,11.1
2023-04-19T05:36:25.985Z,10.6
2023-04-19T05:39:27.956Z,10
2023-04-19T05:42:29.890Z,11.1
2023-04-19T05:45:31.838Z,10.9
2023-04-19T05:48:33.800Z,10.6
2023-04-19T05:51:35.785Z,11
2023-04-19T05:54:37.750Z,10.8
2023-04-19T05:57:39.705Z,10.8
2023-04-19T06:00:41.661Z,10.4
2023-04-19T06:03:43.772Z,9.8
2023-04-19T06:06:45.595Z,9.4
2023-04-19T06:09:47.547Z,8.6
2023-04-19T06:12:49.521Z,9
2023-04-19T06:15:51.525Z,8.8
2023-04-19T06:18:53.463Z,8.7
2023-04-19T06:21:55.411Z,8.2
2023-04-19T06:24:57.428Z,8.1
2023-04-19T06:27:59.405Z,8.1
2023-04-19T06:31:01.351Z,8.2
2023-04-19T06:34:03.375Z,7.5
2023-04-19T06:37:05.305Z,7.3
2023-04-19T06:40:07.440Z,8.1
2023-04-19T06:43:09.210Z,6.3
2023-04-19T06:46:11.189Z,7.1
2023-04-19T06:49:13.132Z,6.2
2023-04-19T06:52:15.095Z,6.4
2023-04-19T06:55:17.145Z,5.7
2023-04-19T06:58:19.113Z,6
2023-04-19T07:01:21.107Z,6
2023-04-19T07:04:23.208Z,5.9
2023-04-19T07:07:25.020Z,5.8
2023-04-19T07:10:27.024Z,5.7
2023-04-19T07:13:28.930Z,4.6
2023-04-19T07:16:31.092Z,5
2023-04-19T07:19:32.891Z,4.9
2023-04-19T07:22:34.825Z,4.5
2023-04-19T07:25:36.776Z,4
2023-04-19T07:28:38.813Z,4
2023-04-19T07:31:40.750Z,3.8
2023-04-19T07:34:42.673Z,4.1
2023-04-19T07:37:44.639Z,3.9
2023-04-19T07:40:46.623Z,3.9
2023-04-19T07:43:48.591Z,4
2023-04-19T07:46:50.636Z,3.7
2023-04-19T07:49:52.505Z,3.5
2023-04-19T07:52:54.465Z,3.5
2023-04-19T07:55:56.516Z,3.7
2023-04-19T07:59:07.317Z,3.9
2023-04-19T08:02:00.464Z,3.9
2023-04-19T08:05:02.503Z,3.2
2023-04-19T08:08:04.356Z,3.6
2023-04-19T08:11:06.340Z,3.3
2023-04-19T08:14:27.087Z,3.4
2023-04-19T08:20:12.249Z,3.3
2023-04-19T08:23:22.621Z,3.5
2023-04-19T08:26:16.172Z,3.1
2023-04-19T08:29:18.218Z,3.6
2023-04-19T08:32:20.093Z,3.2
2023-04-19T08:35:22.026Z,3.6
2023-04-19T08:38:24.307Z,3.2
2023-04-19T08:41:25.960Z,3.1
2023-04-19T08:44:35.723Z,3.3
2023-04-19T08:47:32.347Z,3.1
2023-04-19T08:50:38.643Z,3.5
2023-04-19T08:53:33.984Z,2.9
2023-04-19T08:56:36.101Z,3.2
2023-04-19T08:59:37.820Z,3.3
2023-04-19T09:02:39.865Z,3.7
2023-04-19T09:05:42.054Z,3.5
2023-04-19T09:08:43.839Z,3.2
2023-04-19T09:11:45.828Z,3.3
2023-04-19T09:15:00.230Z,3.3
2023-04-19T09:17:49.788Z,4
2023-04-19T09:20:51.717Z,3.3
2023-04-19T09:23:53.715Z,3.3
2023-04-19T09:26:55.760Z,3.4
2023-04-19T09:29:57.748Z,3.3
2023-04-19T09:32:59.858Z,3.7
2023-04-19T09:36:01.675Z,3.7
2023-04-19T09:39:03.657Z,3.5
2023-04-19T09:42:05.651Z,3.2
2023-04-19T09:48:09.614Z,3.3
2023-04-19T09:51:13.867Z,3.1
2023-04-19T09:54:13.544Z,3.3
2023-04-19T09:57:15.541Z,3.2
2023-04-19T10:00:17.519Z,3.1
2023-04-19T10:03:19.542Z,3
2023-04-19T10:09:23.441Z,2.9
2023-04-19T10:12:45.983Z,3.4
2023-04-19T10:15:29.682Z,2.9
2023-04-19T10:18:29.308Z,3.4
2023-04-19T10:21:31.576Z,3.3
2023-04-19T10:24:33.247Z,3.8
2023-04-19T10:27:35.244Z,3.3
2023-04-19T10:30:37.212Z,3.9
2023-04-19T10:33:39.317Z,3.6
2023-04-19T10:36:41.209Z,3.7
2023-04-19T10:39:43.212Z,3.4
2023-04-19T10:42:45.178Z,3.3
2023-04-19T10:45:47.191Z,3.8
2023-04-19T10:48:49.101Z,3.4
2023-04-19T10:51:51.086Z,3.1
2023-04-19T10:54:53.089Z,3
2023-04-19T10:57:55.049Z,3.1
2023-04-19T11:00:57.091Z,2.9
2023-04-19T11:03:59.066Z,2.8
2023-04-19T11:07:00.983Z,2.7
2023-04-19T11:10:02.935Z,2.6
2023-04-19T11:13:04.882Z,2.5
2023-04-19T11:16:06.918Z,2.1
2023-04-19T11:19:08.817Z,2.3
2023-04-19T11:22:10.774Z,2.3
2023-04-19T11:25:12.839Z,2.4
2023-04-19T11:28:14.819Z,2.1
2023-04-19T11:31:16.774Z,2.2
2023-04-19T11:34:18.850Z,2
2023-04-19T11:37:20.722Z,2
2023-04-19T11:40:22.704Z,1.5
2023-04-19T11:43:24.672Z,1.9
2023-04-19T11:46:26.674Z,1.9
2023-04-19T11:49:28.641Z,2.8
2023-04-19T11:52:30.640Z,2
2023-04-19T11:55:32.597Z,1.8
2023-04-19T11:58:34.612Z,1.8
2023-04-19T12:01:36.556Z,1.4
2023-04-19T12:04:38.771Z,1.4
2023-04-19T12:07:40.557Z,1.5
2023-04-19T12:10:42.449Z,1.4
2023-04-19T12:13:44.463Z,1.6
2023-04-19T12:16:46.638Z,1.5
2023-04-19T12:19:48.406Z,1.6
2023-04-19T12:22:50.403Z,1.4
2023-04-19T12:25:52.323Z,3.6
2023-04-19T12:28:54.301Z,1.9
2023-04-19T12:31:56.326Z,1.4
2023-04-19T12:34:58.229Z,1.2
2023-04-19T12:38:00.188Z,1.2
2023-04-19T12:41:02.358Z,1.1
2023-04-19T12:44:04.185Z,1.1
2023-04-19T12:47:06.127Z,1.1
2023-04-19T12:50:08.109Z,1.1
2023-04-19T12:53:10.063Z,1.2
2023-04-19T12:56:12.027Z,1.1
2023-04-19T12:59:14.118Z,1.5
2023-04-19T13:02:16.023Z,1.3
2023-04-19T13:05:17.941Z,1.1
2023-04-19T13:08:20.275Z,1.2
2023-04-19T13:11:21.850Z,1
2023-04-19T13:14:23.855Z,1
2023-04-19T13:17:25.921Z,0.9
2023-04-19T13:20:27.905Z,1
2023-04-19T13:23:29.915Z,0.9
2023-04-19T13:26:31.849Z,1
2023-04-19T13:29:34.032Z,0.9
2023-04-19T13:32:35.814Z,1.2
2023-04-19T13:35:37.742Z,0.9
2023-04-19T13:38:39.723Z,0.8
2023-04-19T13:41:41.625Z,1
2023-04-19T13:44:43.625Z,1
2023-04-19T13:47:45.659Z,0.9
2023-04-19T13:50:49.140Z,0.9
2023-04-19T13:53:49.584Z,1
2023-04-19T13:56:52.397Z,1
2023-04-19T13:59:53.501Z,1
2023-04-19T14:02:55.547Z,1.1
2023-04-19T14:05:57.409Z,1.3
2023-04-19T14:08:59.380Z,1.2
2023-04-19T14:12:01.325Z,1.2
2023-04-19T14:15:03.324Z,1.1
2023-04-19T14:18:05.350Z,1.1
2023-04-19T14:21:07.240Z,1.2
2023-04-19T14:24:09.226Z,1.2
2023-04-19T14:27:11.840Z,1.1
2023-04-19T14:30:13.203Z,1.1
2023-04-19T14:33:15.144Z,1.2
2023-04-19T14:36:17.096Z,1.5
2023-04-19T14:39:19.085Z,1.1
2023-04-19T14:42:22.470Z,1.4
2023-04-19T14:45:22.965Z,1.1
2023-04-19T14:48:24.937Z,1
2023-04-19T14:51:26.911Z,1.1
2023-04-19T14:54:28.880Z,1.4
2023-04-19T14:57:30.904Z,1.4
2023-04-19T15:00:32.942Z,1.3
2023-04-19T15:03:35.138Z,1.3
2023-04-19T15:06:36.861Z,1.8
2023-04-19T15:09:38.839Z,1.3
2023-04-19T15:12:40.896Z,1.3
2023-04-19T15:15:42.882Z,1.5
2023-04-19T15:18:44.837Z,1.4
2023-04-19T15:21:46.853Z,1.5
2023-04-19T15:24:48.798Z,1.5
2023-04-19T15:27:50.774Z,2.2
2023-04-19T15:30:52.762Z,1.5
2023-04-19T15:33:54.716Z,1.6
2023-04-19T15:36:56.757Z,1.4
2023-04-19T15:39:58.649Z,1.4
2023-04-19T15:43:00.643Z,1.5
2023-04-19T15:46:02.677Z,1.6
2023-04-19T15:49:05.620Z,1.5
2023-04-19T15:52:06.525Z,1.8
2023-04-19T15:55:08.489Z,1.7
2023-04-19T15:58:10.450Z,2
2023-04-19T16:01:12.456Z,2
2023-04-19T16:04:14.542Z,1.9
2023-04-19T16:07:16.339Z,1.9
2023-04-19T16:10:18.291Z,1.8
2023-04-19T16:13:20.258Z,1.8
2023-04-19T16:16:22.262Z,2.3
2023-04-19T16:19:24.253Z,1.8
2023-04-19T16:22:26.244Z,1.6
2023-04-19T16:25:28.217Z,2.1
2023-04-19T16:28:30.184Z,1.8
2023-04-19T16:31:32.137Z,1.8
2023-04-19T16:34:34.095Z,2
2023-04-19T16:37:36.085Z,1.8
2023-04-19T16:40:38.052Z,2
2023-04-19T16:43:40.024Z,2.2
2023-04-19T16:46:41.966Z,1.9
2023-04-19T16:49:43.934Z,2.3
2023-04-19T16:52:45.882Z,1.8
2023-04-19T16:55:47.856Z,1.7
2023-04-19T16:58:49.838Z,1.9
2023-04-19T17:01:51.834Z,1.9
2023-04-19T17:04:53.875Z,1.8
2023-04-19T17:07:56.806Z,1.7
2023-04-19T17:10:57.691Z,2
2023-04-19T17:13:59.619Z,2.1
2023-04-19T17:17:01.610Z,1.9
2023-04-19T17:20:03.576Z,2
2023-04-19T17:23:05.495Z,1.9
2023-04-19T17:26:07.479Z,2.1
2023-04-19T17:29:09.433Z,2.3
2023-04-19T17:32:11.398Z,2.1
2023-04-19T17:35:13.330Z,1.9
2023-04-19T17:38:15.307Z,1.9
2023-04-19T17:41:17.275Z,1.9
2023-04-19T17:44:19.235Z,1.8
2023-04-19T17:47:21.237Z,1.6
2023-04-19T17:50:23.188Z,1.6
2023-04-19T17:53:25.250Z,1.8
2023-04-19T17:56:27.106Z,1.8
2023-04-19T17:59:29.072Z,2.3
2023-04-19T18:02:31.110Z,1.8
2023-04-19T18:05:32.993Z,1.7
2023-04-19T18:08:34.951Z,1.7
2023-04-19T18:11:36.923Z,1.8
2023-04-19T18:14:38.854Z,2
2023-04-19T18:17:40.898Z,1.9
2023-04-19T18:20:42.814Z,1.7
2023-04-19T18:23:44.786Z,2
2023-04-19T18:26:46.714Z,1.7
2023-04-19T18:29:48.672Z,1.8
2023-04-19T18:32:50.742Z,1.8
2023-04-19T18:35:52.663Z,1.7
2023-04-19T18:38:54.634Z,1.8
2023-04-19T18:41:58.227Z,1.9
2023-04-19T18:44:58.560Z,1.8
2023-04-19T18:48:00.568Z,1.8
2023-04-19T18:51:02.449Z,1.5
2023-04-19T18:54:04.414Z,1.8
2023-04-19T18:57:22.290Z,1.6
2023-04-19T19:00:08.339Z,1.7
2023-04-19T19:03:24.560Z,1.8
2023-04-19T19:06:12.676Z,1.8
2023-04-19T19:09:15.191Z,1.7
2023-04-19T19:12:16.208Z,2
2023-04-19T19:15:18.191Z,1.9
2023-04-19T19:18:20.192Z,2
2023-04-19T19:21:22.078Z,2.5
2023-04-19T19:24:24.025Z,2
2023-04-19T19:27:25.993Z,2.1
2023-04-19T19:30:27.965Z,1.8
2023-04-19T19:33:29.956Z,1.8
2023-04-19T19:36:31.924Z,1.9
2023-04-19T19:39:33.854Z,2
2023-04-19T19:42:35.844Z,2.1
2023-04-19T19:45:37.800Z,2
2023-04-19T19:48:42.290Z,2.2
2023-04-19T19:51:52.823Z,2
2023-04-19T19:54:43.678Z,2.1
2023-04-19T20:00:50.474Z,2.1
2023-04-19T20:03:49.836Z,1.8
2023-04-19T20:09:53.544Z,1.8
2023-04-19T20:12:55.441Z,1.9
2023-04-19T20:15:57.419Z,1.9
2023-04-19T20:18:59.373Z,1.9
2023-04-19T20:22:01.325Z,1.9
2023-04-19T20:25:03.301Z,1.9
2023-04-19T20:28:05.269Z,2.1
2023-04-19T20:31:07.232Z,2.1
2023-04-19T20:34:09.190Z,1.8
2023-04-19T20:37:11.134Z,1.8
2023-04-19T20:40:13.101Z,1.5
2023-04-19T20:43:15.032Z,1.7
2023-04-19T20:46:17.062Z,2.2
2023-04-19T20:49:18.953Z,1.9
2023-04-19T20:52:20.901Z,1.9
2023-04-19T20:55:22.873Z,2.1
2023-04-19T20:58:24.883Z,2.2
2023-04-19T21:01:26.849Z,2.2
2023-04-19T21:04:28.945Z,2.3
2023-04-19T21:07:30.764Z,2.2
2023-04-19T21:10:32.714Z,2.5
2023-04-19T21:13:34.651Z,2.4
2023-04-19T21:16:36.654Z,2.2
2023-04-19T21:19:38.605Z,2.3
2023-04-19T21:22:40.571Z,2.5
2023-04-19T21:25:42.521Z,2.6
2023-04-19T21:28:44.483Z,2.3
2023-04-19T21:31:46.510Z,2.2
2023-04-19T21:34:48.397Z,2.5
2023-04-19T21:37:50.377Z,2.6
2023-04-19T21:40:52.328Z,2.9
2023-04-19T21:43:54.311Z,2.5
2023-04-19T21:46:56.335Z,2.5
2023-04-19T21:49:58.225Z,2.4
2023-04-19T21:53:00.192Z,2.7
2023-04-19T21:56:02.884Z,2.4
2023-04-19T21:59:04.111Z,2.3
2023-04-19T22:02:06.108Z,2.7
2023-04-19T22:05:08.039Z,2.3
2023-04-19T22:08:09.989Z,2.6
2023-04-19T22:11:11.977Z,2.8
2023-04-19T22:14:13.916Z,2.6
2023-04-19T22:17:15.869Z,2.3
2023-04-19T22:20:17.861Z,2.4
2023-04-19T22:23:19.796Z,2.5
2023-04-19T22:26:21.755Z,2.6
2023-04-19T22:29:23.714Z,2.5
2023-04-19T22:32:25.745Z,2.4
2023-04-19T22:35:27.687Z,2.5
2023-04-19T22:38:29.689Z,2.3
2023-04-19T22:41:31.596Z,2.4
2023-04-19T22:44:33.774Z,2.7
2023-04-19T22:47:35.534Z,2.5
2023-04-19T22:50:37.478Z,2.4
2023-04-19T22:53:39.436Z,2.3
2023-04-19T22:56:41.397Z,2.6
2023-04-19T22:59:43.371Z,2.4
2023-04-19T23:02:45.403Z,2.4
2023-04-19T23:05:47.321Z,2.8
2023-04-19T23:08:49.282Z,2.4
2023-04-19T23:11:51.210Z,2.5
2023-04-19T23:14:53.216Z,2.7
2023-04-19T23:17:55.180Z,2.8
2023-04-19T23:20:57.107Z,3
2023-04-19T23:23:59.048Z,2.2
2023-04-19T23:27:01.012Z,2.6
2023-04-19T23:30:03.000Z,3.1
2023-04-19T23:33:04.985Z,2.7
2023-04-19T23:36:06.906Z,2.6
2023-04-19T23:39:08.878Z,2.6
2023-04-19T23:42:10.839Z,2.5
2023-04-19T23:45:12.829Z,2.8
2023-04-19T23:48:14.773Z,3.1
2023-04-19T23:51:16.748Z,2.9
2023-04-19T23:54:18.678Z,2.8
2023-04-19T23:57:20.714Z,3.2
